sensor_id;sensor_type;location;lat;lon;timestamp;P1;durP1;ratioP1;P2;durP2;ratioP2
8050;SDS011;4068;42.158;24.732;2023-12-14T00:01:42;109.90;;;49.60;;
8050;SDS011;4068;42.158;24.732;2023-12-14T00:04:08;111.80;;;50.03;;
8050;SDS011;4068;42.158;24.732;2023-12-14T00:06:33;110.93;;;49.00;;
8050;SDS011;4068;42.158;24.732;2023-12-14T00:08:59;115.77;;;47.13;;
8050;SDS011;4068;42.158;24.732;2023-12-14T00:11:24;102.30;;;43.90;;
8050;SDS011;4068;42.158;24.732;2023-12-14T00:13:50;90.53;;;45.20;;
8050;SDS011;4068;42.158;24.732;2023-12-14T00:16:15;97.60;;;45.60;;
8050;SDS011;4068;42.158;24.732;2023-12-14T00:18:41;110.30;;;46.40;;
8050;SDS011;4068;42.158;24.732;2023-12-14T00:21:07;94.67;;;43.97;;
8050;SDS011;4068;42.158;24.732;2023-12-14T00:23:33;107.63;;;45.17;;
8050;SDS011;4068;42.158;24.732;2023-12-14T00:25:59;96.50;;;42.30;;
8050;SDS011;4068;42.158;24.732;2023-12-14T00:28:24;96.23;;;42.80;;
8050;SDS011;4068;42.158;24.732;2023-12-14T00:30:50;89.80;;;40.70;;
8050;SDS011;4068;42.158;24.732;2023-12-14T00:33:15;104.60;;;44.67;;
8050;SDS011;4068;42.158;24.732;2023-12-14T00:35:41;89.00;;;42.87;;
8050;SDS011;4068;42.158;24.732;2023-12-14T00:38:06;95.63;;;43.20;;
8050;SDS011;4068;42.158;24.732;2023-12-14T00:40:32;100.93;;;44.60;;
8050;SDS011;4068;42.158;24.732;2023-12-14T00:43:00;100.60;;;44.57;;
8050;SDS011;4068;42.158;24.732;2023-12-14T00:45:26;83.97;;;41.27;;
8050;SDS011;4068;42.158;24.732;2023-12-14T00:47:51;97.23;;;43.27;;
8050;SDS011;4068;42.158;24.732;2023-12-14T00:50:17;83.27;;;40.07;;
8050;SDS011;4068;42.158;24.732;2023-12-14T00:52:42;93.07;;;42.03;;
8050;SDS011;4068;42.158;24.732;2023-12-14T00:55:08;74.43;;;34.97;;
8050;SDS011;4068;42.158;24.732;2023-12-14T00:57:33;82.87;;;39.47;;
8050;SDS011;4068;42.158;24.732;2023-12-14T00:59:59;94.60;;;41.93;;
8050;SDS011;4068;42.158;24.732;2023-12-14T01:02:24;95.90;;;41.87;;
8050;SDS011;4068;42.158;24.732;2023-12-14T01:04:49;86.53;;;38.63;;
8050;SDS011;4068;42.158;24.732;2023-12-14T01:07:15;85.70;;;40.40;;
8050;SDS011;4068;42.158;24.732;2023-12-14T01:09:40;90.80;;;40.23;;
8050;SDS011;4068;42.158;24.732;2023-12-14T01:12:06;89.97;;;41.50;;
8050;SDS011;4068;42.158;24.732;2023-12-14T01:14:31;86.30;;;39.80;;
8050;SDS011;4068;42.158;24.732;2023-12-14T01:16:57;84.67;;;40.20;;
8050;SDS011;4068;42.158;24.732;2023-12-14T01:19:22;83.40;;;39.33;;
8050;SDS011;4068;42.158;24.732;2023-12-14T01:21:50;87.40;;;39.67;;
8050;SDS011;4068;42.158;24.732;2023-12-14T01:24:15;82.27;;;39.87;;
8050;SDS011;4068;42.158;24.732;2023-12-14T01:26:41;88.73;;;40.00;;
8050;SDS011;4068;42.158;24.732;2023-12-14T01:29:06;81.87;;;38.43;;
8050;SDS011;4068;42.158;24.732;2023-12-14T01:31:32;81.07;;;38.53;;
8050;SDS011;4068;42.158;24.732;2023-12-14T01:33:57;77.57;;;36.33;;
8050;SDS011;4068;42.158;24.732;2023-12-14T01:36:23;77.27;;;36.47;;
8050;SDS011;4068;42.158;24.732;2023-12-14T01:38:50;81.40;;;38.23;;
8050;SDS011;4068;42.158;24.732;2023-12-14T01:41:16;80.67;;;37.57;;
8050;SDS011;4068;42.158;24.732;2023-12-14T01:43:42;76.17;;;37.93;;
8050;SDS011;4068;42.158;24.732;2023-12-14T01:46:08;85.97;;;38.57;;
8050;SDS011;4068;42.158;24.732;2023-12-14T01:48:33;80.63;;;38.70;;
8050;SDS011;4068;42.158;24.732;2023-12-14T01:50:59;76.07;;;37.33;;
8050;SDS011;4068;42.158;24.732;2023-12-14T01:53:24;77.40;;;37.23;;
8050;SDS011;4068;42.158;24.732;2023-12-14T01:55:50;74.60;;;36.70;;
8050;SDS011;4068;42.158;24.732;2023-12-14T01:58:15;70.67;;;34.63;;
8050;SDS011;4068;42.158;24.732;2023-12-14T02:00:42;82.63;;;38.13;;
8050;SDS011;4068;42.158;24.732;2023-12-14T02:03:10;86.57;;;39.77;;
8050;SDS011;4068;42.158;24.732;2023-12-14T02:05:36;70.13;;;35.93;;
8050;SDS011;4068;42.158;24.732;2023-12-14T02:08:02;78.37;;;35.83;;
8050;SDS011;4068;42.158;24.732;2023-12-14T02:10:27;78.93;;;38.53;;
8050;SDS011;4068;42.158;24.732;2023-12-14T02:12:53;84.07;;;40.43;;
8050;SDS011;4068;42.158;24.732;2023-12-14T02:15:18;75.07;;;36.30;;
8050;SDS011;4068;42.158;24.732;2023-12-14T02:17:45;78.63;;;40.27;;
8050;SDS011;4068;42.158;24.732;2023-12-14T02:20:10;77.10;;;37.53;;
8050;SDS011;4068;42.158;24.732;2023-12-14T02:22:52;76.83;;;38.40;;
8050;SDS011;4068;42.158;24.732;2023-12-14T02:25:21;75.53;;;36.43;;
8050;SDS011;4068;42.158;24.732;2023-12-14T02:27:47;73.80;;;38.17;;
8050;SDS011;4068;42.158;24.732;2023-12-14T02:30:14;78.37;;;37.33;;
8050;SDS011;4068;42.158;24.732;2023-12-14T02:32:40;83.13;;;39.77;;
8050;SDS011;4068;42.158;24.732;2023-12-14T02:35:06;75.20;;;36.93;;
8050;SDS011;4068;42.158;24.732;2023-12-14T02:37:32;80.73;;;38.77;;
8050;SDS011;4068;42.158;24.732;2023-12-14T02:39:58;77.80;;;37.20;;
8050;SDS011;4068;42.158;24.732;2023-12-14T02:42:26;71.90;;;35.93;;
8050;SDS011;4068;42.158;24.732;2023-12-14T02:44:53;81.07;;;36.70;;
8050;SDS011;4068;42.158;24.732;2023-12-14T02:47:19;79.60;;;36.33;;
8050;SDS011;4068;42.158;24.732;2023-12-14T02:49:44;70.50;;;35.03;;
8050;SDS011;4068;42.158;24.732;2023-12-14T02:52:09;75.93;;;35.20;;
8050;SDS011;4068;42.158;24.732;2023-12-14T02:54:36;76.23;;;34.73;;
8050;SDS011;4068;42.158;24.732;2023-12-14T02:57:04;81.43;;;36.33;;
8050;SDS011;4068;42.158;24.732;2023-12-14T02:59:29;74.60;;;37.57;;
8050;SDS011;4068;42.158;24.732;2023-12-14T03:01:55;89.57;;;38.77;;
8050;SDS011;4068;42.158;24.732;2023-12-14T03:04:20;89.20;;;39.30;;
8050;SDS011;4068;42.158;24.732;2023-12-14T03:06:46;82.13;;;35.90;;
8050;SDS011;4068;42.158;24.732;2023-12-14T03:09:12;79.83;;;36.73;;
8050;SDS011;4068;42.158;24.732;2023-12-14T03:11:37;90.27;;;39.40;;
8050;SDS011;4068;42.158;24.732;2023-12-14T03:14:03;67.83;;;33.77;;
8050;SDS011;4068;42.158;24.732;2023-12-14T03:16:28;71.03;;;32.80;;
8050;SDS011;4068;42.158;24.732;2023-12-14T03:18:54;66.50;;;31.77;;
8050;SDS011;4068;42.158;24.732;2023-12-14T03:21:20;68.10;;;31.83;;
8050;SDS011;4068;42.158;24.732;2023-12-14T03:23:45;67.33;;;32.47;;
8050;SDS011;4068;42.158;24.732;2023-12-14T03:26:11;55.27;;;29.03;;
8050;SDS011;4068;42.158;24.732;2023-12-14T03:28:36;59.10;;;29.10;;
8050;SDS011;4068;42.158;24.732;2023-12-14T03:31:02;62.80;;;30.23;;
8050;SDS011;4068;42.158;24.732;2023-12-14T03:33:28;64.40;;;31.83;;
8050;SDS011;4068;42.158;24.732;2023-12-14T03:35:54;65.67;;;31.17;;
8050;SDS011;4068;42.158;24.732;2023-12-14T03:38:20;67.90;;;30.53;;
8050;SDS011;4068;42.158;24.732;2023-12-14T03:40:47;60.87;;;30.03;;
8050;SDS011;4068;42.158;24.732;2023-12-14T03:43:12;68.33;;;31.17;;
8050;SDS011;4068;42.158;24.732;2023-12-14T03:45:38;61.40;;;30.33;;
8050;SDS011;4068;42.158;24.732;2023-12-14T03:48:03;67.33;;;30.37;;
8050;SDS011;4068;42.158;24.732;2023-12-14T03:50:29;57.83;;;31.70;;
8050;SDS011;4068;42.158;24.732;2023-12-14T03:52:55;63.27;;;30.53;;
8050;SDS011;4068;42.158;24.732;2023-12-14T03:55:20;65.37;;;30.97;;
8050;SDS011;4068;42.158;24.732;2023-12-14T03:57:45;67.83;;;31.13;;
8050;SDS011;4068;42.158;24.732;2023-12-14T04:00:11;61.97;;;31.10;;
8050;SDS011;4068;42.158;24.732;2023-12-14T04:02:39;61.40;;;30.90;;
8050;SDS011;4068;42.158;24.732;2023-12-14T04:05:06;62.83;;;29.60;;
8050;SDS011;4068;42.158;24.732;2023-12-14T04:07:34;63.60;;;30.33;;
8050;SDS011;4068;42.158;24.732;2023-12-14T04:10:14;67.40;;;33.37;;
8050;SDS011;4068;42.158;24.732;2023-12-14T04:12:40;68.97;;;32.87;;
8050;SDS011;4068;42.158;24.732;2023-12-14T04:15:07;59.50;;;30.93;;
8050;SDS011;4068;42.158;24.732;2023-12-14T04:17:33;66.13;;;30.63;;
8050;SDS011;4068;42.158;24.732;2023-12-14T04:19:59;83.33;;;36.93;;
8050;SDS011;4068;42.158;24.732;2023-12-14T04:22:25;83.27;;;40.10;;
8050;SDS011;4068;42.158;24.732;2023-12-14T04:24:51;80.17;;;36.43;;
8050;SDS011;4068;42.158;24.732;2023-12-14T04:27:17;70.07;;;33.57;;
8050;SDS011;4068;42.158;24.732;2023-12-14T04:29:43;64.47;;;33.23;;
8050;SDS011;4068;42.158;24.732;2023-12-14T04:32:09;69.17;;;33.37;;
8050;SDS011;4068;42.158;24.732;2023-12-14T04:34:35;55.10;;;28.30;;
8050;SDS011;4068;42.158;24.732;2023-12-14T04:37:00;55.23;;;28.73;;
8050;SDS011;4068;42.158;24.732;2023-12-14T04:39:26;59.20;;;25.70;;
8050;SDS011;4068;42.158;24.732;2023-12-14T04:41:52;50.00;;;26.93;;
8050;SDS011;4068;42.158;24.732;2023-12-14T04:44:18;52.37;;;24.57;;
8050;SDS011;4068;42.158;24.732;2023-12-14T04:46:44;52.23;;;24.27;;
8050;SDS011;4068;42.158;24.732;2023-12-14T04:49:09;50.70;;;23.50;;
8050;SDS011;4068;42.158;24.732;2023-12-14T04:51:35;59.87;;;27.10;;
8050;SDS011;4068;42.158;24.732;2023-12-14T04:54:01;61.73;;;28.70;;
8050;SDS011;4068;42.158;24.732;2023-12-14T04:56:27;52.30;;;24.90;;
8050;SDS011;4068;42.158;24.732;2023-12-14T04:58:52;48.53;;;24.80;;
8050;SDS011;4068;42.158;24.732;2023-12-14T05:01:18;55.07;;;25.60;;
8050;SDS011;4068;42.158;24.732;2023-12-14T05:03:43;52.67;;;27.10;;
8050;SDS011;4068;42.158;24.732;2023-12-14T05:06:09;60.50;;;28.53;;
8050;SDS011;4068;42.158;24.732;2023-12-14T05:08:34;61.43;;;30.97;;
8050;SDS011;4068;42.158;24.732;2023-12-14T05:11:00;60.37;;;29.73;;
8050;SDS011;4068;42.158;24.732;2023-12-14T05:13:26;50.77;;;26.07;;
8050;SDS011;4068;42.158;24.732;2023-12-14T05:15:51;54.40;;;27.47;;
8050;SDS011;4068;42.158;24.732;2023-12-14T05:18:17;47.27;;;25.47;;
8050;SDS011;4068;42.158;24.732;2023-12-14T05:20:43;52.17;;;25.77;;
8050;SDS011;4068;42.158;24.732;2023-12-14T05:23:10;53.73;;;26.57;;
8050;SDS011;4068;42.158;24.732;2023-12-14T05:25:36;52.47;;;25.33;;
8050;SDS011;4068;42.158;24.732;2023-12-14T05:28:01;55.57;;;26.00;;
8050;SDS011;4068;42.158;24.732;2023-12-14T05:30:27;56.57;;;28.07;;
8050;SDS011;4068;42.158;24.732;2023-12-14T05:32:52;56.17;;;28.17;;
8050;SDS011;4068;42.158;24.732;2023-12-14T05:35:18;62.13;;;28.63;;
8050;SDS011;4068;42.158;24.732;2023-12-14T05:37:43;56.17;;;28.67;;
8050;SDS011;4068;42.158;24.732;2023-12-14T05:40:09;63.73;;;29.93;;
8050;SDS011;4068;42.158;24.732;2023-12-14T05:42:35;58.47;;;28.33;;
8050;SDS011;4068;42.158;24.732;2023-12-14T05:45:00;61.77;;;29.87;;
8050;SDS011;4068;42.158;24.732;2023-12-14T05:47:26;61.93;;;30.97;;
8050;SDS011;4068;42.158;24.732;2023-12-14T05:49:52;64.70;;;30.77;;
8050;SDS011;4068;42.158;24.732;2023-12-14T05:52:17;62.87;;;30.97;;
8050;SDS011;4068;42.158;24.732;2023-12-14T05:54:43;67.80;;;32.63;;
8050;SDS011;4068;42.158;24.732;2023-12-14T05:57:08;58.40;;;30.67;;
8050;SDS011;4068;42.158;24.732;2023-12-14T05:59:34;59.63;;;30.03;;
8050;SDS011;4068;42.158;24.732;2023-12-14T06:02:00;65.20;;;30.33;;
8050;SDS011;4068;42.158;24.732;2023-12-14T06:04:26;62.33;;;32.20;;
8050;SDS011;4068;42.158;24.732;2023-12-14T06:06:53;66.27;;;31.57;;
8050;SDS011;4068;42.158;24.732;2023-12-14T06:09:18;72.43;;;34.03;;
8050;SDS011;4068;42.158;24.732;2023-12-14T06:11:49;77.90;;;33.07;;
8050;SDS011;4068;42.158;24.732;2023-12-14T06:14:16;68.30;;;35.40;;
8050;SDS011;4068;42.158;24.732;2023-12-14T06:16:42;72.27;;;34.30;;
8050;SDS011;4068;42.158;24.732;2023-12-14T06:19:07;69.80;;;31.87;;
8050;SDS011;4068;42.158;24.732;2023-12-14T06:21:32;70.47;;;33.60;;
8050;SDS011;4068;42.158;24.732;2023-12-14T06:23:58;68.83;;;36.30;;
8050;SDS011;4068;42.158;24.732;2023-12-14T06:26:25;70.47;;;34.77;;
8050;SDS011;4068;42.158;24.732;2023-12-14T06:28:50;71.43;;;33.37;;
8050;SDS011;4068;42.158;24.732;2023-12-14T06:31:17;73.70;;;34.70;;
8050;SDS011;4068;42.158;24.732;2023-12-14T06:33:43;73.77;;;32.93;;
8050;SDS011;4068;42.158;24.732;2023-12-14T06:36:09;70.77;;;34.23;;
8050;SDS011;4068;42.158;24.732;2023-12-14T06:38:37;65.50;;;32.90;;
8050;SDS011;4068;42.158;24.732;2023-12-14T06:41:03;66.70;;;32.13;;
8050;SDS011;4068;42.158;24.732;2023-12-14T06:43:29;62.43;;;32.80;;
8050;SDS011;4068;42.158;24.732;2023-12-14T06:45:55;66.07;;;33.53;;
8050;SDS011;4068;42.158;24.732;2023-12-14T06:48:21;61.53;;;30.23;;
8050;SDS011;4068;42.158;24.732;2023-12-14T06:50:46;59.00;;;29.30;;
8050;SDS011;4068;42.158;24.732;2023-12-14T06:53:12;57.83;;;31.27;;
8050;SDS011;4068;42.158;24.732;2023-12-14T06:55:37;58.57;;;30.03;;
8050;SDS011;4068;42.158;24.732;2023-12-14T06:58:04;65.20;;;33.80;;
8050;SDS011;4068;42.158;24.732;2023-12-14T07:00:33;62.10;;;30.73;;
8050;SDS011;4068;42.158;24.732;2023-12-14T07:02:59;64.97;;;31.93;;
8050;SDS011;4068;42.158;24.732;2023-12-14T07:05:25;57.90;;;29.77;;
8050;SDS011;4068;42.158;24.732;2023-12-14T07:07:51;57.13;;;28.43;;
8050;SDS011;4068;42.158;24.732;2023-12-14T07:10:16;49.13;;;27.83;;
8050;SDS011;4068;42.158;24.732;2023-12-14T07:12:41;59.10;;;29.67;;
8050;SDS011;4068;42.158;24.732;2023-12-14T07:15:07;58.43;;;32.00;;
8050;SDS011;4068;42.158;24.732;2023-12-14T07:17:33;67.87;;;36.73;;
8050;SDS011;4068;42.158;24.732;2023-12-14T07:19:58;84.20;;;37.90;;
8050;SDS011;4068;42.158;24.732;2023-12-14T07:22:24;68.03;;;34.80;;
8050;SDS011;4068;42.158;24.732;2023-12-14T07:24:49;76.67;;;38.60;;
8050;SDS011;4068;42.158;24.732;2023-12-14T07:27:15;67.70;;;38.40;;
8050;SDS011;4068;42.158;24.732;2023-12-14T07:29:40;66.73;;;35.63;;
8050;SDS011;4068;42.158;24.732;2023-12-14T07:32:06;67.33;;;35.83;;
8050;SDS011;4068;42.158;24.732;2023-12-14T07:34:32;63.53;;;33.70;;
8050;SDS011;4068;42.158;24.732;2023-12-14T07:36:57;64.47;;;31.83;;
8050;SDS011;4068;42.158;24.732;2023-12-14T07:39:23;66.03;;;32.07;;
8050;SDS011;4068;42.158;24.732;2023-12-14T07:41:48;61.50;;;31.77;;
8050;SDS011;4068;42.158;24.732;2023-12-14T07:44:14;68.73;;;33.03;;
8050;SDS011;4068;42.158;24.732;2023-12-14T07:46:39;59.87;;;30.67;;
8050;SDS011;4068;42.158;24.732;2023-12-14T07:49:07;71.17;;;33.17;;
8050;SDS011;4068;42.158;24.732;2023-12-14T07:51:33;68.00;;;34.10;;
8050;SDS011;4068;42.158;24.732;2023-12-14T07:53:58;63.10;;;31.17;;
8050;SDS011;4068;42.158;24.732;2023-12-14T07:56:24;58.27;;;32.23;;
8050;SDS011;4068;42.158;24.732;2023-12-14T07:58:52;72.07;;;36.97;;
8050;SDS011;4068;42.158;24.732;2023-12-14T08:01:18;58.10;;;31.80;;
8050;SDS011;4068;42.158;24.732;2023-12-14T08:03:43;63.43;;;33.47;;
8050;SDS011;4068;42.158;24.732;2023-12-14T08:06:09;68.40;;;34.50;;
8050;SDS011;4068;42.158;24.732;2023-12-14T08:08:34;46.97;;;26.77;;
8050;SDS011;4068;42.158;24.732;2023-12-14T08:11:00;50.77;;;27.93;;
8050;SDS011;4068;42.158;24.732;2023-12-14T08:13:26;56.40;;;29.53;;
8050;SDS011;4068;42.158;24.732;2023-12-14T08:15:52;44.30;;;24.30;;
8050;SDS011;4068;42.158;24.732;2023-12-14T08:18:17;49.00;;;24.30;;
8050;SDS011;4068;42.158;24.732;2023-12-14T08:20:42;52.50;;;26.57;;
8050;SDS011;4068;42.158;24.732;2023-12-14T08:23:08;38.80;;;23.07;;
8050;SDS011;4068;42.158;24.732;2023-12-14T08:25:34;42.70;;;25.20;;
8050;SDS011;4068;42.158;24.732;2023-12-14T08:27:59;43.83;;;21.87;;
8050;SDS011;4068;42.158;24.732;2023-12-14T08:30:25;39.97;;;21.97;;
8050;SDS011;4068;42.158;24.732;2023-12-14T08:32:50;30.30;;;18.73;;
8050;SDS011;4068;42.158;24.732;2023-12-14T08:35:16;41.30;;;20.88;;
8050;SDS011;4068;42.158;24.732;2023-12-14T08:37:41;40.50;;;20.17;;
8050;SDS011;4068;42.158;24.732;2023-12-14T08:40:08;46.63;;;23.33;;
8050;SDS011;4068;42.158;24.732;2023-12-14T08:42:34;42.57;;;21.17;;
8050;SDS011;4068;42.158;24.732;2023-12-14T08:45:00;44.55;;;21.42;;
8050;SDS011;4068;42.158;24.732;2023-12-14T08:47:26;37.33;;;19.00;;
8050;SDS011;4068;42.158;24.732;2023-12-14T08:49:51;34.28;;;20.05;;
8050;SDS011;4068;42.158;24.732;2023-12-14T08:52:18;33.22;;;20.08;;
8050;SDS011;4068;42.158;24.732;2023-12-14T08:54:43;40.05;;;22.98;;
8050;SDS011;4068;42.158;24.732;2023-12-14T08:57:09;39.45;;;21.17;;
8050;SDS011;4068;42.158;24.732;2023-12-14T08:59:35;31.50;;;17.15;;
8050;SDS011;4068;42.158;24.732;2023-12-14T09:02:01;31.83;;;18.05;;
8050;SDS011;4068;42.158;24.732;2023-12-14T09:04:27;31.52;;;17.83;;
8050;SDS011;4068;42.158;24.732;2023-12-14T09:06:52;35.75;;;17.75;;
8050;SDS011;4068;42.158;24.732;2023-12-14T09:09:18;24.13;;;14.45;;
8050;SDS011;4068;42.158;24.732;2023-12-14T09:11:44;27.27;;;14.93;;
8050;SDS011;4068;42.158;24.732;2023-12-14T09:14:10;26.05;;;15.32;;
8050;SDS011;4068;42.158;24.732;2023-12-14T09:16:35;25.55;;;15.02;;
8050;SDS011;4068;42.158;24.732;2023-12-14T09:19:01;24.63;;;15.10;;
8050;SDS011;4068;42.158;24.732;2023-12-14T09:21:26;26.38;;;15.63;;
8050;SDS011;4068;42.158;24.732;2023-12-14T09:23:52;28.63;;;16.38;;
8050;SDS011;4068;42.158;24.732;2023-12-14T09:26:20;34.38;;;16.73;;
8050;SDS011;4068;42.158;24.732;2023-12-14T09:28:45;29.23;;;16.73;;
8050;SDS011;4068;42.158;24.732;2023-12-14T09:31:11;26.60;;;16.67;;
8050;SDS011;4068;42.158;24.732;2023-12-14T09:33:37;34.42;;;18.50;;
8050;SDS011;4068;42.158;24.732;2023-12-14T09:36:02;29.38;;;17.13;;
8050;SDS011;4068;42.158;24.732;2023-12-14T09:38:28;27.85;;;16.23;;
8050;SDS011;4068;42.158;24.732;2023-12-14T09:40:53;25.75;;;15.77;;
8050;SDS011;4068;42.158;24.732;2023-12-14T09:43:19;30.25;;;16.70;;
8050;SDS011;4068;42.158;24.732;2023-12-14T09:45:46;26.05;;;16.50;;
8050;SDS011;4068;42.158;24.732;2023-12-14T09:48:12;28.48;;;16.25;;
8050;SDS011;4068;42.158;24.732;2023-12-14T09:50:40;28.05;;;15.13;;
8050;SDS011;4068;42.158;24.732;2023-12-14T09:53:06;38.95;;;17.90;;
8050;SDS011;4068;42.158;24.732;2023-12-14T09:55:32;27.50;;;16.55;;
8050;SDS011;4068;42.158;24.732;2023-12-14T09:57:58;29.80;;;15.02;;
8050;SDS011;4068;42.158;24.732;2023-12-14T10:00:37;28.88;;;15.88;;
8050;SDS011;4068;42.158;24.732;2023-12-14T10:03:22;30.00;;;16.25;;
8050;SDS011;4068;42.158;24.732;2023-12-14T10:05:51;34.78;;;16.98;;
8050;SDS011;4068;42.158;24.732;2023-12-14T10:08:18;30.23;;;16.38;;
8050;SDS011;4068;42.158;24.732;2023-12-14T10:10:44;44.58;;;17.60;;
8050;SDS011;4068;42.158;24.732;2023-12-14T10:13:14;41.88;;;17.67;;
8050;SDS011;4068;42.158;24.732;2023-12-14T10:15:49;35.90;;;17.20;;
8050;SDS011;4068;42.158;24.732;2023-12-14T10:18:22;33.88;;;16.40;;
8050;SDS011;4068;42.158;24.732;2023-12-14T10:20:49;29.13;;;16.38;;
8050;SDS011;4068;42.158;24.732;2023-12-14T10:23:15;27.85;;;16.17;;
8050;SDS011;4068;42.158;24.732;2023-12-14T10:25:41;31.58;;;15.88;;
8050;SDS011;4068;42.158;24.732;2023-12-14T10:28:07;28.67;;;16.20;;
8050;SDS011;4068;42.158;24.732;2023-12-14T10:30:33;29.73;;;16.63;;
8050;SDS011;4068;42.158;24.732;2023-12-14T10:32:59;28.52;;;16.17;;
8050;SDS011;4068;42.158;24.732;2023-12-14T10:35:25;28.13;;;16.00;;
8050;SDS011;4068;42.158;24.732;2023-12-14T10:37:51;45.17;;;16.75;;
8050;SDS011;4068;42.158;24.732;2023-12-14T10:40:17;31.73;;;16.48;;
8050;SDS011;4068;42.158;24.732;2023-12-14T10:42:43;34.55;;;17.10;;
8050;SDS011;4068;42.158;24.732;2023-12-14T10:45:11;28.00;;;16.73;;
8050;SDS011;4068;42.158;24.732;2023-12-14T10:47:48;34.33;;;16.60;;
8050;SDS011;4068;42.158;24.732;2023-12-14T10:50:15;33.63;;;16.15;;
8050;SDS011;4068;42.158;24.732;2023-12-14T10:52:42;30.35;;;16.67;;
8050;SDS011;4068;42.158;24.732;2023-12-14T10:55:10;23.75;;;15.60;;
8050;SDS011;4068;42.158;24.732;2023-12-14T10:57:41;25.80;;;15.55;;
8050;SDS011;4068;42.158;24.732;2023-12-14T11:00:06;25.90;;;16.00;;
8050;SDS011;4068;42.158;24.732;2023-12-14T11:02:40;25.08;;;15.48;;
8050;SDS011;4068;42.158;24.732;2023-12-14T11:05:11;34.30;;;16.27;;
8050;SDS011;4068;42.158;24.732;2023-12-14T11:07:47;29.10;;;16.50;;
8050;SDS011;4068;42.158;24.732;2023-12-14T11:10:20;34.00;;;15.82;;
8050;SDS011;4068;42.158;24.732;2023-12-14T11:13:10;27.60;;;16.38;;
8050;SDS011;4068;42.158;24.732;2023-12-14T11:15:40;32.78;;;16.38;;
8050;SDS011;4068;42.158;24.732;2023-12-14T11:26:00;34.55;;;16.17;;
8050;SDS011;4068;42.158;24.732;2023-12-14T11:28:30;24.40;;;14.75;;
8050;SDS011;4068;42.158;24.732;2023-12-14T11:30:56;35.38;;;15.57;;
8050;SDS011;4068;42.158;24.732;2023-12-14T11:33:22;27.88;;;14.55;;
8050;SDS011;4068;42.158;24.732;2023-12-14T11:35:49;31.98;;;17.38;;
8050;SDS011;4068;42.158;24.732;2023-12-14T11:38:16;26.42;;;15.02;;
8050;SDS011;4068;42.158;24.732;2023-12-14T11:40:42;29.77;;;16.67;;
8050;SDS011;4068;42.158;24.732;2023-12-14T11:43:08;35.97;;;17.15;;
8050;SDS011;4068;42.158;24.732;2023-12-14T11:45:37;33.95;;;16.58;;
8050;SDS011;4068;42.158;24.732;2023-12-14T11:48:04;29.10;;;15.90;;
8050;SDS011;4068;42.158;24.732;2023-12-14T11:50:40;28.55;;;15.88;;
8050;SDS011;4068;42.158;24.732;2023-12-14T11:53:06;33.40;;;17.15;;
8050;SDS011;4068;42.158;24.732;2023-12-14T11:55:33;28.13;;;16.38;;
8050;SDS011;4068;42.158;24.732;2023-12-14T11:58:00;45.85;;;18.23;;
8050;SDS011;4068;42.158;24.732;2023-12-14T12:00:26;26.45;;;15.55;;
8050;SDS011;4068;42.158;24.732;2023-12-14T12:08:15;29.35;;;16.52;;
8050;SDS011;4068;42.158;24.732;2023-12-14T12:10:44;32.33;;;17.00;;
8050;SDS011;4068;42.158;24.732;2023-12-14T12:13:12;30.23;;;15.75;;
8050;SDS011;4068;42.158;24.732;2023-12-14T12:15:39;29.90;;;15.93;;
8050;SDS011;4068;42.158;24.732;2023-12-14T12:18:05;31.08;;;15.88;;
8050;SDS011;4068;42.158;24.732;2023-12-14T12:20:32;29.73;;;16.42;;
8050;SDS011;4068;42.158;24.732;2023-12-14T12:22:59;26.67;;;16.33;;
8050;SDS011;4068;42.158;24.732;2023-12-14T12:25:24;31.45;;;15.43;;
8050;SDS011;4068;42.158;24.732;2023-12-14T12:27:51;32.65;;;15.50;;
8050;SDS011;4068;42.158;24.732;2023-12-14T12:30:17;35.25;;;15.35;;
8050;SDS011;4068;42.158;24.732;2023-12-14T12:32:42;25.50;;;13.93;;
8050;SDS011;4068;42.158;24.732;2023-12-14T12:35:08;28.40;;;15.23;;
8050;SDS011;4068;42.158;24.732;2023-12-14T12:37:34;29.70;;;16.02;;
8050;SDS011;4068;42.158;24.732;2023-12-14T12:40:00;33.45;;;16.40;;
8050;SDS011;4068;42.158;24.732;2023-12-14T12:42:25;28.23;;;15.93;;
8050;SDS011;4068;42.158;24.732;2023-12-14T12:44:51;26.65;;;15.93;;
8050;SDS011;4068;42.158;24.732;2023-12-14T12:47:17;28.65;;;16.25;;
8050;SDS011;4068;42.158;24.732;2023-12-14T12:49:43;26.65;;;15.95;;
8050;SDS011;4068;42.158;24.732;2023-12-14T12:52:08;26.95;;;15.90;;
8050;SDS011;4068;42.158;24.732;2023-12-14T12:54:34;28.48;;;14.75;;
8050;SDS011;4068;42.158;24.732;2023-12-14T12:57:00;35.13;;;16.70;;
8050;SDS011;4068;42.158;24.732;2023-12-14T12:59:26;31.05;;;17.65;;
8050;SDS011;4068;42.158;24.732;2023-12-14T13:01:51;44.17;;;17.60;;
8050;SDS011;4068;42.158;24.732;2023-12-14T13:04:21;27.27;;;15.10;;
8050;SDS011;4068;42.158;24.732;2023-12-14T13:06:48;29.33;;;15.43;;
8050;SDS011;4068;42.158;24.732;2023-12-14T13:09:14;35.42;;;16.08;;
8050;SDS011;4068;42.158;24.732;2023-12-14T13:11:43;25.63;;;13.60;;
8050;SDS011;4068;42.158;24.732;2023-12-14T13:14:08;29.63;;;16.10;;
8050;SDS011;4068;42.158;24.732;2023-12-14T13:16:37;33.08;;;15.23;;
8050;SDS011;4068;42.158;24.732;2023-12-14T13:19:04;36.17;;;15.60;;
8050;SDS011;4068;42.158;24.732;2023-12-14T13:21:31;32.45;;;16.25;;
8050;SDS011;4068;42.158;24.732;2023-12-14T13:23:59;28.48;;;15.18;;
8050;SDS011;4068;42.158;24.732;2023-12-14T13:26:24;42.15;;;17.50;;
8050;SDS011;4068;42.158;24.732;2023-12-14T13:28:53;32.97;;;16.20;;
8050;SDS011;4068;42.158;24.732;2023-12-14T13:31:19;27.88;;;13.98;;
8050;SDS011;4068;42.158;24.732;2023-12-14T13:33:48;35.33;;;15.98;;
8050;SDS011;4068;42.158;24.732;2023-12-14T13:36:15;39.90;;;19.27;;
8050;SDS011;4068;42.158;24.732;2023-12-14T13:38:41;39.80;;;18.83;;
8050;SDS011;4068;42.158;24.732;2023-12-14T13:41:07;32.10;;;17.15;;
8050;SDS011;4068;42.158;24.732;2023-12-14T13:43:33;48.35;;;18.70;;
8050;SDS011;4068;42.158;24.732;2023-12-14T13:45:59;39.20;;;17.70;;
8050;SDS011;4068;42.158;24.732;2023-12-14T13:48:24;31.30;;;17.10;;
8050;SDS011;4068;42.158;24.732;2023-12-14T13:50:51;34.80;;;16.92;;
8050;SDS011;4068;42.158;24.732;2023-12-14T13:53:16;46.20;;;20.20;;
8050;SDS011;4068;42.158;24.732;2023-12-14T13:55:42;67.35;;;36.58;;
8050;SDS011;4068;42.158;24.732;2023-12-14T13:58:07;33.53;;;18.90;;
8050;SDS011;4068;42.158;24.732;2023-12-14T14:00:33;33.53;;;18.13;;
8050;SDS011;4068;42.158;24.732;2023-12-14T14:03:00;38.50;;;18.60;;
8050;SDS011;4068;42.158;24.732;2023-12-14T14:05:28;28.95;;;16.45;;
8050;SDS011;4068;42.158;24.732;2023-12-14T14:07:54;37.70;;;17.98;;
8050;SDS011;4068;42.158;24.732;2023-12-14T14:10:20;42.42;;;18.48;;
8050;SDS011;4068;42.158;24.732;2023-12-14T14:12:46;34.47;;;17.80;;
8050;SDS011;4068;42.158;24.732;2023-12-14T14:15:12;40.25;;;18.15;;
8050;SDS011;4068;42.158;24.732;2023-12-14T14:17:37;47.92;;;17.90;;
8050;SDS011;4068;42.158;24.732;2023-12-14T14:20:03;34.50;;;18.55;;
8050;SDS011;4068;42.158;24.732;2023-12-14T14:22:30;33.90;;;18.33;;
8050;SDS011;4068;42.158;24.732;2023-12-14T14:24:55;41.25;;;19.67;;
8050;SDS011;4068;42.158;24.732;2023-12-14T14:27:21;39.35;;;20.85;;
8050;SDS011;4068;42.158;24.732;2023-12-14T14:29:47;46.15;;;19.88;;
8050;SDS011;4068;42.158;24.732;2023-12-14T14:32:12;44.33;;;22.35;;
8050;SDS011;4068;42.158;24.732;2023-12-14T14:34:38;44.35;;;21.08;;
8050;SDS011;4068;42.158;24.732;2023-12-14T14:37:04;34.40;;;18.95;;
8050;SDS011;4068;42.158;24.732;2023-12-14T14:39:30;60.45;;;25.67;;
8050;SDS011;4068;42.158;24.732;2023-12-14T14:41:56;40.90;;;21.20;;